Maverick Dos — EAMO — position and weather

sailwx.info

Track history (hours):
 
Tides and Currents Weather Stations Pressure Air Temp Water Temp Dewpoint Dewpoint Depression Visibility Wind Speed Wind Dir Waves Ship Positions

Maverick Dos

Last reported at 2017-Oct-17 18:23 UTC. Time now 2017-Oct-17 18:55 UTC.
Position N 38°49' E 001°25'.

Length 39 m; draft 1.6 m.

Type: Ship. MMSI: 225392000.

Date/timePositionNaut miles runAvg speedWind from/ knotsBaromVisibWave heightAir tempDewpointWater temp
2017-Oct-17 18:23N 38°49' E 001°25'513.1
2017-Oct-17 17:58N 38°55' E 001°26'2 3.8
2017-Oct-17 17:30N 38°53' E 001°27'6 6.3
2017-Oct-17 16:31N 38°47' E 001°24'021.6
2017-Oct-17 16:30N 38°47' E 001°24'714.5
2017-Oct-17 15:59N 38°55' E 001°26'2 3.9
2017-Oct-17 15:30N 38°53' E 001°26'5 2.5
2017-Oct-17 13:29N 38°48' E 001°25'714.1
2017-Oct-17 13:00N 38°55' E 001°26'0 0.0
2017-Oct-17 12:30N 38°55' E 001°26'0 0.0
2017-Oct-17 11:59N 38°55' E 001°26'0 0.0
2017-Oct-17 11:29N 38°55' E 001°26'2 3.6
2017-Oct-17 11:00N 38°53' E 001°26'8 6.0
2017-Oct-17 09:40N 38°45' E 001°25'419.5
2017-Oct-17 09:29N 38°49' E 001°25'612.2
2017-Oct-17 08:58N 38°55' E 001°26'3 5.9
2017-Oct-17 08:30N 38°52' E 001°25'3 3.4
2017-Oct-17 07:29N 38°49' E 001°25'613.0
2017-Oct-17 07:00N 38°55' E 001°26'0 0.0
2017-Oct-17 06:29N 38°55' E 001°26'0 0.5
2017-Oct-17 05:58N 38°55' E 001°26'2 5.2
2017-Oct-17 05:30N 38°53' E 001°25'3 0.2
2017-Oct-16 18:20N 38°50' E 001°25'513.6
2017-Oct-16 17:59N 38°55' E 001°26'0 0.0
2017-Oct-16 12:26N 38°55' E 001°26'0 0.0
2017-Oct-16 12:00N 38°55' E 001°26'0 0.0
2017-Oct-16 11:30N 38°55' E 001°26'8 4.0
2017-Oct-16 09:33N 38°47' E 001°25'119.7
2017-Oct-16 09:29N 38°48' E 001°25'713.3
2017-Oct-16 09:00N 38°55' E 001°26'4 7.5
2017-Oct-16 08:25N 38°51' E 001°25'0 0.2
2017-Oct-16 07:21N 38°51' E 001°25'411.2
2017-Oct-16 06:59N 38°55' E 001°26'0 0.0
2017-Oct-16 06:29N 38°55' E 001°26'0 0.5
2017-Oct-16 05:59N 38°55' E 001°26'7 0.6
2017-Oct-15 18:24N 38°48' E 001°25'615.4
2017-Oct-15 18:00N 38°55' E 001°26'5 3.3
2017-Oct-15 16:22N 38°49' E 001°25'513.3
2017-Oct-15 15:58N 38°55' E 001°26'4 6.6
2017-Oct-15 15:25N 38°51' E 001°26'2 0.9
2017-Oct-15 13:25N 38°49' E 001°25'512.5
2017-Oct-15 12:59N 38°55' E 001°26'0 0.0
2017-Oct-15 12:30N 38°55' E 001°26'0 0.0
2017-Oct-15 12:00N 38°55' E 001°26'0 0.0
2017-Oct-15 11:30N 38°55' E 001°26'3 5.3
2017-Oct-15 11:00N 38°52' E 001°26'3 1.9
2017-Oct-15 09:28N 38°49' E 001°25'512.0
2017-Oct-15 09:00N 38°55' E 001°26'4 7.1
2017-Oct-15 08:25N 38°51' E 001°25'2 2.6
2017-Oct-15 07:29N 38°48' E 001°25'713.6
2017-Oct-15 06:59N 38°55' E 001°26'0 0.0
2017-Oct-15 06:29N 38°55' E 001°26'0 0.0
2017-Oct-15 06:00N 38°55' E 001°26'2 3.8
2017-Oct-15 05:30N 38°53' E 001°26'5 0.4
2017-Oct-14 18:37N 38°48' E 001°25'321.2
2017-Oct-14 18:29N 38°51' E 001°26'4 6.3
2017-Oct-14 17:53N 38°55' E 001°26'1 1.6
2017-Oct-14 17:30N 38°54' E 001°27'7 7.4
2017-Oct-14 16:30N 38°47' E 001°24'814.7
2017-Oct-14 15:59N 38°55' E 001°26'3 7.0
2017-Oct-14 15:30N 38°51' E 001°26'2 1.0
2017-Oct-14 13:24N 38°49' E 001°25'513.5
2017-Oct-14 13:00N 38°55' E 001°26'0 0.0
2017-Oct-14 12:30N 38°55' E 001°26'0 0.0
2017-Oct-14 11:59N 38°55' E 001°26'0 0.0
2017-Oct-14 11:29N 38°55' E 001°26'6 2.8
2017-Oct-14 09:24N 38°49' E 001°25'611.6
2017-Oct-14 08:53N 38°55' E 001°26'3 6.6
2017-Oct-14 08:28N 38°52' E 001°26'4 3.9
2017-Oct-14 07:28N 38°48' E 001°25'613.9
2017-Oct-14 07:00N 38°55' E 001°26'0 0.0
2017-Oct-14 06:29N 38°55' E 001°26'0 0.5
2017-Oct-14 05:57N 38°55' E 001°26'2 4.8
2017-Oct-14 05:29N 38°53' E 001°26'4 0.3
2017-Oct-13 18:23N 38°49' E 001°25'614.7
2017-Oct-13 18:00N 38°55' E 001°26'2 3.8
2017-Oct-13 17:30N 38°53' E 001°26'3 2.8
2017-Oct-13 16:22N 38°50' E 001°25'513.3
2017-Oct-13 16:00N 38°55' E 001°26'3 5.6
2017-Oct-13 15:28N 38°52' E 001°26'4 1.8
2017-Oct-13 13:30N 38°48' E 001°25'612.2
2017-Oct-13 12:58N 38°55' E 001°26'0 0.0
2017-Oct-13 12:28N 38°55' E 001°26'0 0.0
2017-Oct-13 12:00N 38°55' E 001°26'0 0.0
2017-Oct-13 11:30N 38°55' E 001°26'2 3.3
2017-Oct-13 11:00N 38°53' E 001°27'4 2.5
2017-Oct-13 09:24N 38°49' E 001°25'5 8.0
2017-Oct-13 08:43N 38°55' E 001°26'2 9.7
2017-Oct-13 08:30N 38°53' E 001°26'911.0
2017-Oct-13 07:43N 38°44' E 001°25'517.9
2017-Oct-13 07:26N 38°49' E 001°25'613.0
2017-Oct-13 07:00N 38°55' E 001°26'0 0.0
2017-Oct-13 06:30N 38°55' E 001°26'0 0.5
2017-Oct-13 05:59N 38°55' E 001°26'2 4.4
2017-Oct-13 05:30N 38°53' E 001°26'5 0.4
2017-Oct-12 18:26N 38°48' E 001°25'614.9
2017-Oct-12 18:00N 38°55' E 001°26'1 2.4
2017-Oct-12 17:30N 38°54' E 001°27'910.9
2017-Oct-12 16:39N 38°44' E 001°25'320.1
2017-Oct-12 16:30N 38°47' E 001°24'815.3
2017-Oct-12 16:00N 38°55' E 001°26'1 2.2
2017-Oct-12 15:29N 38°54' E 001°27'6 3.2
2017-Oct-12 13:32N 38°48' E 001°25'119.4
2017-Oct-12 13:30N 38°49' E 001°25'612.0
2017-Oct-12 12:59N 38°55' E 001°26'0 0.0
2017-Oct-12 12:29N 38°55' E 001°26'0 0.0
2017-Oct-12 11:54N 38°55' E 001°26'0 0.0
2017-Oct-12 11:29N 38°55' E 001°26'1 1.3
2017-Oct-12 11:00N 38°54' E 001°27'6 4.0
2017-Oct-12 09:29N 38°48' E 001°25'613.4
2017-Oct-12 09:00N 38°55' E 001°26'1 2.9
2017-Oct-12 08:30N 38°53' E 001°27'5 5.4
2017-Oct-12 07:31N 38°48' E 001°25'020.5
2017-Oct-12 07:30N 38°49' E 001°25'612.4
2017-Oct-12 07:00N 38°55' E 001°26'0 0.0
2017-Oct-12 06:29N 38°55' E 001°26'0 0.0
2017-Oct-12 05:59N 38°55' E 001°26'1 2.4
2017-Oct-12 05:29N 38°54' E 001°27'5 0.5
2017-Oct-11 18:37N 38°48' E 001°25'218.8
2017-Oct-11 18:30N 38°51' E 001°25'4 8.2
2017-Oct-11 17:59N 38°55' E 001°26'1 2.5
2017-Oct-11 17:30N 38°54' E 001°27'7 7.2
2017-Oct-11 16:32N 38°47' E 001°24'1 0.1
2017-Oct-10 18:29N 38°48' E 001°25'612.6
2017-Oct-10 17:59N 38°55' E 001°26'3 5.3
2017-Oct-10 17:30N 38°52' E 001°26'3 3.1
2017-Oct-10 16:25N 38°49' E 001°25'613.8
2017-Oct-10 16:00N 38°55' E 001°26'2 4.8
2017-Oct-10 15:30N 38°52' E 001°27'4 2.0
2017-Oct-10 13:26N 38°48' E 001°25'614.4
2017-Oct-10 13:00N 38°55' E 001°26'0 0.0
2017-Oct-10 12:29N 38°55' E 001°26'0 0.0
2017-Oct-10 12:00N 38°55' E 001°26'0 0.0
2017-Oct-10 11:29N 38°55' E 001°26'2 4.8
2017-Oct-10 11:00N 38°52' E 001°27'3 2.0
2017-Oct-10 09:23N 38°49' E 001°25'612.1
2017-Oct-10 08:55N 38°55' E 001°26'1 3.4
2017-Oct-10 08:30N 38°53' E 001°27'5 5.1
2017-Oct-10 07:27N 38°48' E 001°25'714.4
2017-Oct-10 07:00N 38°55' E 001°26'0 0.0
2017-Oct-10 06:28N 38°55' E 001°26'0 0.5
2017-Oct-10 06:00N 38°55' E 001°26'2 3.8
2017-Oct-10 05:29N 38°53' E 001°27'4 0.4
2017-Oct-09 18:25N 38°49' E 001°25'614.5
2017-Oct-09 18:01N 38°55' E 001°26'2 3.8
2017-Oct-09 17:30N 38°53' E 001°27'4 4.0
2017-Oct-09 16:27N 38°49' E 001°25'613.6
2017-Oct-09 16:01N 38°55' E 001°26'4 7.3
2017-Oct-09 15:26N 38°50' E 001°26'2 0.9
2017-Oct-09 13:29N 38°49' E 001°25'612.5
2017-Oct-09 13:00N 38°55' E 001°26'0 0.0
2017-Oct-09 12:30N 38°55' E 001°26'0 0.0
2017-Oct-09 11:59N 38°55' E 001°26'0 0.0
2017-Oct-09 11:30N 38°55' E 001°26'5 7.6
2017-Oct-09 10:53N 38°50' E 001°26'1 0.6
2017-Oct-09 09:27N 38°49' E 001°25'611.4
2017-Oct-09 08:57N 38°55' E 001°26'3 6.0
2017-Oct-09 08:31N 38°52' E 001°26'4 3.9
2017-Oct-09 07:27N 38°48' E 001°25'713.6
2017-Oct-09 06:59N 38°55' E 001°26'0 0.0
2017-Oct-09 06:30N 38°55' E 001°26'0 0.5
2017-Oct-09 06:00N 38°55' E 001°26'3 6.1
2017-Oct-09 05:30N 38°52' E 001°26'4 0.3
2017-Oct-08 18:28N 38°48' E 001°25'713.4
2017-Oct-08 17:59N 38°55' E 001°26'3 6.0
2017-Oct-08 17:30N 38°52' E 001°26'8 9.7
2017-Oct-08 16:42N 38°44' E 001°25'517.0
2017-Oct-08 16:26N 38°49' E 001°25'614.0
2017-Oct-08 15:59N 38°55' E 001°26'2 3.3
2017-Oct-08 15:30N 38°53' E 001°27'4 2.0
2017-Oct-08 13:27N 38°49' E 001°25'612.3
2017-Oct-08 13:00N 38°55' E 001°26'0 0.0
2017-Oct-08 12:30N 38°55' E 001°26'0 0.0
2017-Oct-08 11:59N 38°55' E 001°26'0 0.0
2017-Oct-08 11:29N 38°55' E 001°26'3 4.8
2017-Oct-08 10:57N 38°52' E 001°26'4 2.7
2017-Oct-08 09:29N 38°48' E 001°25'613.6
2017-Oct-08 09:00N 38°55' E 001°26'2 3.7
2017-Oct-08 08:30N 38°53' E 001°27'5 5.3
2017-Oct-08 07:31N 38°48' E 001°25'016.9
2017-Oct-08 07:30N 38°48' E 001°25'712.7
2017-Oct-08 06:59N 38°55' E 001°26'0 0.0
2017-Oct-08 06:30N 38°55' E 001°26'0 0.3
2017-Oct-08 05:49N 38°55' E 001°26'2 6.9
2017-Oct-08 05:30N 38°53' E 001°27'5 0.4
2017-Oct-07 18:30N 38°48' E 001°25'  
Track history (hours):
 
Tides and Currents Weather Stations Pressure Air Temp Water Temp Dewpoint Dewpoint Depression Visibility Wind Speed Wind Dir Waves Ship Positions

Maverick Dos

Last reported at 2017-Oct-17 18:23 UTC. Time now 2017-Oct-17 18:55 UTC.
Position N 38°49' E 001°25'.

Length 39 m; draft 1.6 m.

Type: Ship. MMSI: 225392000.

Date/timePositionNaut miles runAvg speedWind from/ knotsBaromVisibWave heightAir tempDewpointWater temp
2017-Oct-17 18:23N 38°49' E 001°25'513.1
2017-Oct-17 17:58N 38°55' E 001°26'2 3.8
2017-Oct-17 17:30N 38°53' E 001°27'6 6.3
2017-Oct-17 16:31N 38°47' E 001°24'021.6
2017-Oct-17 16:30N 38°47' E 001°24'714.5
2017-Oct-17 15:59N 38°55' E 001°26'2 3.9
2017-Oct-17 15:30N 38°53' E 001°26'5 2.5
2017-Oct-17 13:29N 38°48' E 001°25'714.1
2017-Oct-17 13:00N 38°55' E 001°26'0 0.0
2017-Oct-17 12:30N 38°55' E 001°26'0 0.0
2017-Oct-17 11:59N 38°55' E 001°26'0 0.0
2017-Oct-17 11:29N 38°55' E 001°26'2 3.6
2017-Oct-17 11:00N 38°53' E 001°26'8 6.0
2017-Oct-17 09:40N 38°45' E 001°25'419.5
2017-Oct-17 09:29N 38°49' E 001°25'612.2
2017-Oct-17 08:58N 38°55' E 001°26'3 5.9
2017-Oct-17 08:30N 38°52' E 001°25'3 3.4
2017-Oct-17 07:29N 38°49' E 001°25'613.0
2017-Oct-17 07:00N 38°55' E 001°26'0 0.0
2017-Oct-17 06:29N 38°55' E 001°26'0 0.5
2017-Oct-17 05:58N 38°55' E 001°26'2 5.2
2017-Oct-17 05:30N 38°53' E 001°25'3 0.2
2017-Oct-16 18:20N 38°50' E 001°25'513.6
2017-Oct-16 17:59N 38°55' E 001°26'0 0.0
2017-Oct-16 12:26N 38°55' E 001°26'0 0.0
2017-Oct-16 12:00N 38°55' E 001°26'0 0.0
2017-Oct-16 11:30N 38°55' E 001°26'8 4.0
2017-Oct-16 09:33N 38°47' E 001°25'119.7
2017-Oct-16 09:29N 38°48' E 001°25'713.3
2017-Oct-16 09:00N 38°55' E 001°26'4 7.5
2017-Oct-16 08:25N 38°51' E 001°25'0 0.2
2017-Oct-16 07:21N 38°51' E 001°25'411.2
2017-Oct-16 06:59N 38°55' E 001°26'0 0.0
2017-Oct-16 06:29N 38°55' E 001°26'0 0.5
2017-Oct-16 05:59N 38°55' E 001°26'7 0.6
2017-Oct-15 18:24N 38°48' E 001°25'615.4
2017-Oct-15 18:00N 38°55' E 001°26'5 3.3
2017-Oct-15 16:22N 38°49' E 001°25'513.3
2017-Oct-15 15:58N 38°55' E 001°26'4 6.6
2017-Oct-15 15:25N 38°51' E 001°26'2 0.9
2017-Oct-15 13:25N 38°49' E 001°25'512.5
2017-Oct-15 12:59N 38°55' E 001°26'0 0.0
2017-Oct-15 12:30N 38°55' E 001°26'0 0.0
2017-Oct-15 12:00N 38°55' E 001°26'0 0.0
2017-Oct-15 11:30N 38°55' E 001°26'3 5.3
2017-Oct-15 11:00N 38°52' E 001°26'3 1.9
2017-Oct-15 09:28N 38°49' E 001°25'512.0
2017-Oct-15 09:00N 38°55' E 001°26'4 7.1
2017-Oct-15 08:25N 38°51' E 001°25'2 2.6
2017-Oct-15 07:29N 38°48' E 001°25'713.6
2017-Oct-15 06:59N 38°55' E 001°26'0 0.0
2017-Oct-15 06:29N 38°55' E 001°26'0 0.0
2017-Oct-15 06:00N 38°55' E 001°26'2 3.8
2017-Oct-15 05:30N 38°53' E 001°26'5 0.4
2017-Oct-14 18:37N 38°48' E 001°25'321.2
2017-Oct-14 18:29N 38°51' E 001°26'4 6.3
2017-Oct-14 17:53N 38°55' E 001°26'1 1.6
2017-Oct-14 17:30N 38°54' E 001°27'7 7.4
2017-Oct-14 16:30N 38°47' E 001°24'814.7
2017-Oct-14 15:59N 38°55' E 001°26'3 7.0
2017-Oct-14 15:30N 38°51' E 001°26'2 1.0
2017-Oct-14 13:24N 38°49' E 001°25'513.5
2017-Oct-14 13:00N 38°55' E 001°26'0 0.0
2017-Oct-14 12:30N 38°55' E 001°26'0 0.0
2017-Oct-14 11:59N 38°55' E 001°26'0 0.0
2017-Oct-14 11:29N 38°55' E 001°26'6 2.8
2017-Oct-14 09:24N 38°49' E 001°25'611.6
2017-Oct-14 08:53N 38°55' E 001°26'3 6.6
2017-Oct-14 08:28N 38°52' E 001°26'4 3.9
2017-Oct-14 07:28N 38°48' E 001°25'613.9
2017-Oct-14 07:00N 38°55' E 001°26'0 0.0
2017-Oct-14 06:29N 38°55' E 001°26'0 0.5
2017-Oct-14 05:57N 38°55' E 001°26'2 4.8
2017-Oct-14 05:29N 38°53' E 001°26'4 0.3
2017-Oct-13 18:23N 38°49' E 001°25'614.7
2017-Oct-13 18:00N 38°55' E 001°26'2 3.8
2017-Oct-13 17:30N 38°53' E 001°26'3 2.8
2017-Oct-13 16:22N 38°50' E 001°25'513.3
2017-Oct-13 16:00N 38°55' E 001°26'3 5.6
2017-Oct-13 15:28N 38°52' E 001°26'4 1.8
2017-Oct-13 13:30N 38°48' E 001°25'612.2
2017-Oct-13 12:58N 38°55' E 001°26'0 0.0
2017-Oct-13 12:28N 38°55' E 001°26'0 0.0
2017-Oct-13 12:00N 38°55' E 001°26'0 0.0
2017-Oct-13 11:30N 38°55' E 001°26'2 3.3
2017-Oct-13 11:00N 38°53' E 001°27'4 2.5
2017-Oct-13 09:24N 38°49' E 001°25'5 8.0
2017-Oct-13 08:43N 38°55' E 001°26'2 9.7
2017-Oct-13 08:30N 38°53' E 001°26'911.0
2017-Oct-13 07:43N 38°44' E 001°25'517.9
2017-Oct-13 07:26N 38°49' E 001°25'613.0
2017-Oct-13 07:00N 38°55' E 001°26'0 0.0
2017-Oct-13 06:30N 38°55' E 001°26'0 0.5
2017-Oct-13 05:59N 38°55' E 001°26'2 4.4
2017-Oct-13 05:30N 38°53' E 001°26'5 0.4
2017-Oct-12 18:26N 38°48' E 001°25'614.9
2017-Oct-12 18:00N 38°55' E 001°26'1 2.4
2017-Oct-12 17:30N 38°54' E 001°27'910.9
2017-Oct-12 16:39N 38°44' E 001°25'320.1
2017-Oct-12 16:30N 38°47' E 001°24'815.3
2017-Oct-12 16:00N 38°55' E 001°26'1 2.2
2017-Oct-12 15:29N 38°54' E 001°27'6 3.2
2017-Oct-12 13:32N 38°48' E 001°25'119.4
2017-Oct-12 13:30N 38°49' E 001°25'612.0
2017-Oct-12 12:59N 38°55' E 001°26'0 0.0
2017-Oct-12 12:29N 38°55' E 001°26'0 0.0
2017-Oct-12 11:54N 38°55' E 001°26'0 0.0
2017-Oct-12 11:29N 38°55' E 001°26'1 1.3
2017-Oct-12 11:00N 38°54' E 001°27'6 4.0
2017-Oct-12 09:29N 38°48' E 001°25'613.4
2017-Oct-12 09:00N 38°55' E 001°26'1 2.9
2017-Oct-12 08:30N 38°53' E 001°27'5 5.4
2017-Oct-12 07:31N 38°48' E 001°25'020.5
2017-Oct-12 07:30N 38°49' E 001°25'612.4
2017-Oct-12 07:00N 38°55' E 001°26'0 0.0
2017-Oct-12 06:29N 38°55' E 001°26'0 0.0
2017-Oct-12 05:59N 38°55' E 001°26'1 2.4
2017-Oct-12 05:29N 38°54' E 001°27'5 0.5
2017-Oct-11 18:37N 38°48' E 001°25'218.8
2017-Oct-11 18:30N 38°51' E 001°25'4 8.2
2017-Oct-11 17:59N 38°55' E 001°26'1 2.5
2017-Oct-11 17:30N 38°54' E 001°27'7 7.2
2017-Oct-11 16:32N 38°47' E 001°24'1 0.1
2017-Oct-10 18:29N 38°48' E 001°25'612.6
2017-Oct-10 17:59N 38°55' E 001°26'3 5.3
2017-Oct-10 17:30N 38°52' E 001°26'3 3.1
2017-Oct-10 16:25N 38°49' E 001°25'613.8
2017-Oct-10 16:00N 38°55' E 001°26'2 4.8
2017-Oct-10 15:30N 38°52' E 001°27'4 2.0
2017-Oct-10 13:26N 38°48' E 001°25'614.4
2017-Oct-10 13:00N 38°55' E 001°26'0 0.0
2017-Oct-10 12:29N 38°55' E 001°26'0 0.0
2017-Oct-10 12:00N 38°55' E 001°26'0 0.0
2017-Oct-10 11:29N 38°55' E 001°26'2 4.8
2017-Oct-10 11:00N 38°52' E 001°27'3 2.0
2017-Oct-10 09:23N 38°49' E 001°25'612.1
2017-Oct-10 08:55N 38°55' E 001°26'1 3.4
2017-Oct-10 08:30N 38°53' E 001°27'5 5.1
2017-Oct-10 07:27N 38°48' E 001°25'714.4
2017-Oct-10 07:00N 38°55' E 001°26'0 0.0
2017-Oct-10 06:28N 38°55' E 001°26'0 0.5
2017-Oct-10 06:00N 38°55' E 001°26'2 3.8
2017-Oct-10 05:29N 38°53' E 001°27'4 0.4
2017-Oct-09 18:25N 38°49' E 001°25'614.5
2017-Oct-09 18:01N 38°55' E 001°26'2 3.8
2017-Oct-09 17:30N 38°53' E 001°27'4 4.0
2017-Oct-09 16:27N 38°49' E 001°25'613.6
2017-Oct-09 16:01N 38°55' E 001°26'4 7.3
2017-Oct-09 15:26N 38°50' E 001°26'2 0.9
2017-Oct-09 13:29N 38°49' E 001°25'612.5
2017-Oct-09 13:00N 38°55' E 001°26'0 0.0
2017-Oct-09 12:30N 38°55' E 001°26'0 0.0
2017-Oct-09 11:59N 38°55' E 001°26'0 0.0
2017-Oct-09 11:30N 38°55' E 001°26'5 7.6
2017-Oct-09 10:53N 38°50' E 001°26'1 0.6
2017-Oct-09 09:27N 38°49' E 001°25'611.4
2017-Oct-09 08:57N 38°55' E 001°26'3 6.0
2017-Oct-09 08:31N 38°52' E 001°26'4 3.9
2017-Oct-09 07:27N 38°48' E 001°25'713.6
2017-Oct-09 06:59N 38°55' E 001°26'0 0.0
2017-Oct-09 06:30N 38°55' E 001°26'0 0.5
2017-Oct-09 06:00N 38°55' E 001°26'3 6.1
2017-Oct-09 05:30N 38°52' E 001°26'4 0.3
2017-Oct-08 18:28N 38°48' E 001°25'713.4
2017-Oct-08 17:59N 38°55' E 001°26'3 6.0
2017-Oct-08 17:30N 38°52' E 001°26'8 9.7
2017-Oct-08 16:42N 38°44' E 001°25'517.0
2017-Oct-08 16:26N 38°49' E 001°25'614.0
2017-Oct-08 15:59N 38°55' E 001°26'2 3.3
2017-Oct-08 15:30N 38°53' E 001°27'4 2.0
2017-Oct-08 13:27N 38°49' E 001°25'612.3
2017-Oct-08 13:00N 38°55' E 001°26'0 0.0
2017-Oct-08 12:30N 38°55' E 001°26'0 0.0
2017-Oct-08 11:59N 38°55' E 001°26'0 0.0
2017-Oct-08 11:29N 38°55' E 001°26'3 4.8
2017-Oct-08 10:57N 38°52' E 001°26'4 2.7
2017-Oct-08 09:29N 38°48' E 001°25'613.6
2017-Oct-08 09:00N 38°55' E 001°26'2 3.7
2017-Oct-08 08:30N 38°53' E 001°27'5 5.3
2017-Oct-08 07:31N 38°48' E 001°25'016.9
2017-Oct-08 07:30N 38°48' E 001°25'712.7
2017-Oct-08 06:59N 38°55' E 001°26'0 0.0
2017-Oct-08 06:30N 38°55' E 001°26'0 0.3
2017-Oct-08 05:49N 38°55' E 001°26'2 6.9
2017-Oct-08 05:30N 38°53' E 001°27'5 0.4
2017-Oct-07 18:30N 38°48' E 001°25'  

Dump ship's entire track history